Latest METARs, TAFs and NOTAMs for MYNN


---------------------------------------------------------------------------
	(OBSERVATIONS)
MYNN 221000Z 10004KT 9999 FEW018 SCT100 BKN200 23/14 A2990=
MYNN 220900Z 08004KT 9999 FEW018 SCT100 BKN200 22/16 A2990=
MYNN 220800Z 08006KT 9999 FEW018 BKN100 BKN200 21/14 A2991=
---------------------------------------------------------------------------
	(TERMINAL AREA FORECAST)
MYNN 220500Z 2206/2306 10008KT 9999 FEW020 SCT100 BKN200
    BECMG 2212/2214 14015KT SCT016CB BKN080 OVC200
    PROB30 TEMPO 2219/2224 5000 17020G30KT TSRA SCT014CB BKN018
    OVC080=
---------------------------------------------------------------------------
	(NOTAMS)


MYNN A0017/17 CHECKLIST (A) SERIES YEAR=2010 0277 YEAR=2013 0068
    0069 0070 YEAR=2015 0108 YEAR=2016 0209 0221 0266 0291 0316
    0340 0350 0352 0380 0381 0382 0383 0384 0385 0386 0387 0388
    0389 0390 0391 0392 0393 0394 0011 0014 0015 0016 LATEST
    PUBLICATIONS AIP AMDT 01/16 EFFECTIVE MAY 26, 2016 AIC 03/16.
    01 FEB 18:00 2017 UNTIL 28 FEB 23:59 2017. CREATED: 01 FEB
    17:37 2017

MYNN A0025/17 RWY 09/27 CLSD FOR LGT REPAIRS CAN BE UTILIZED
    FOR EMERG USE ONLY. FEB 15 - FEB 25, 15 FEB 11:00 2017 UNTIL
    25 FEB 11:00 2017. CREATED: 14 FEB 20:52 2017

MYNN A0027/17 MEN AND EQPT WORKING ON THE SHOULDERS NEAR INT
    OF RWY 14/32 AND 09/27 EQUIPPED WITH RDO AND WILL MOVE WITH
    TFC. DAILY 0400UTC - 0900UTC, 21 FEB 04:00 2017 UNTIL 25
    FEB 09:00 2017. CREATED: 16 FEB 20:27 2017

MYNN A0068/13 VOR Y RWY 14 FEEDER RTE FM MAJUR TO MUNIE NOT AVBL
    VOR Y RWY 14 FEEDER RTE FM MELON TO MUNIE NOT AVBL. SFC -
    UNL, 19 APR 19:55 2013 UNTIL PERM. CREATED: 19 APR 19:51
    2013

MYNN A0069/13 VOR Y RWY 09 FEEDER RTE FM MAJUR TO MUSSE NOT AVBL
    REMOVE PROCEDURE NOTE 'RADAR REQUIRED' FM APP CHART. SFC
    - UNL, 19 APR 19:55 2013 UNTIL PERM. CREATED: 19 APR 19:52
    2013

MYNN A0070/13 VOR Y RWY 32 FEEDER RTE FM PRUNE TO WELKS NOT AVBL
    REMOVE PROCEDURE NOTE 'RADAR REQUIRED' FM APP CHART. SFC
    - UNL, 19 APR 19:55 2013 UNTIL PERM. CREATED: 19 APR 19:54
    2013

MYNN A0108/15 INFORMATION LISTED IN AIC 3/2015 WITH THE EXCEPTION
    OF MYNN AND MYGF RNAV APCH PROC IN THE BAHAMAS ARE NOT AUTH
    DUE TO AIRSPACE CLASSIFICATION RESTRICTIONS. 01 JUN 18:00
    2015 UNTIL PERM. CREATED: 01 JUN 16:52 2015

MYNN A0316/16 WIE THE DEPARTMENT OF CIVIL AVIATION BANS ALL SAMSUNG
    GALAXY NOTE 7 PHONES FROM ACFT TRAVELLING IN THE BAHAMAS.
    DEVICES MAY NOT BE TRANSPORTED BY PASSENGERS OR CREW ON THEIR
    PERSON, IN CARRY-ON BAGGAGE, OR IN CHECKED BAGGAGE ON FLIGHTS
    TO, FROM, OR WITHIN THE COMMONWEALTH OF THE BAHAMAS AND CANNOT
    BE SHIPPED AS AIR CARGO. 20 OCT 15:30 2016 UNTIL PERM. CREATED:
    20 OCT 15:12 2016

MYNN A0393/16 ATS WILL ONLY ACCEPT NON-CLOSURE PLN'S TO MYSM
    MYCA MYCX MYCH MYCB MYAP MYCI MYCP MYMM MYRP MYLD MYLS DUE
    TO LACK OF COM. 30 DEC 16:00 2016 UNTIL 31 MAR 23:59 2017.
    CREATED: 29 DEC 16:02 2016

MYNN B0001/17 CHECKLIST (B) SERIES YEAR=2016 0024 0028 LATEST
    PUBLICATIONS AIP AMDT 01/16 EFFECTIVE MAY 26, 2016 AIC 03/16.
    01 FEB 18:00 2017 UNTIL 28 FEB 23:59 2017. CREATED: 01 FEB
    17:28 2017

---------------------------------------------------------------------------